createdAt,value
2023-01-02T00:01:14.272Z,64.95
2023-01-02T00:03:40.733Z,65.30
2023-01-02T00:06:07.779Z,65.24
2023-01-02T00:08:34.389Z,65.54
2023-01-02T00:11:00.853Z,65.75
2023-01-02T00:13:27.443Z,65.71
2023-01-02T00:15:53.783Z,65.59
2023-01-02T00:18:20.207Z,65.73
2023-01-02T00:20:46.679Z,65.43
2023-01-02T00:23:13.043Z,65.56
2023-01-02T00:25:39.461Z,65.46
2023-01-02T00:28:05.801Z,65.66
2023-01-02T00:30:37.828Z,66.03
2023-01-02T00:33:05.584Z,66.14
2023-01-02T00:35:31.995Z,65.35
2023-01-02T00:37:58.536Z,65.25
2023-01-02T00:40:24.877Z,65.34
2023-01-02T00:42:51.239Z,65.61
2023-01-02T00:45:17.754Z,65.82
2023-01-02T00:47:44.100Z,65.54
2023-01-02T00:50:10.463Z,65.59
2023-01-02T00:52:36.788Z,65.90
2023-01-02T00:55:03.580Z,65.20
2023-01-02T00:57:29.914Z,65.56
2023-01-02T00:59:56.542Z,65.52
2023-01-02T01:02:22.905Z,65.47
2023-01-02T01:04:49.329Z,65.40
2023-01-02T01:07:15.730Z,65.50
2023-01-02T01:09:42.072Z,65.30
2023-01-02T01:12:08.890Z,65.51
2023-01-02T01:14:35.419Z,66.12
2023-01-02T01:17:01.758Z,66.33
2023-01-02T01:19:32.961Z,66.59
2023-01-02T01:21:59.376Z,66.16
2023-01-02T01:24:26.362Z,65.56
2023-01-02T01:26:52.786Z,66.18
2023-01-02T01:29:19.770Z,68.11
2023-01-02T01:31:46.288Z,67.85
2023-01-02T01:34:12.828Z,67.39
2023-01-02T01:36:39.229Z,68.75
2023-01-02T01:39:05.707Z,68.16
2023-01-02T01:41:32.085Z,67.28
2023-01-02T01:44:00.365Z,66.87
2023-01-02T01:46:38.689Z,66.92
2023-01-02T01:49:16.064Z,66.78
2023-01-02T01:52:04.585Z,66.82
2023-01-02T01:54:41.696Z,66.73
2023-01-02T01:57:31.589Z,66.72
2023-01-02T01:59:59.859Z,66.67
2023-01-02T02:02:28.667Z,66.66
2023-01-02T02:04:59.753Z,66.49
2023-01-02T02:07:27.357Z,66.89
2023-01-02T02:10:00.038Z,67.13
2023-01-02T02:12:28.315Z,67.41
2023-01-02T02:14:54.803Z,67.50
2023-01-02T02:17:31.128Z,67.76
2023-01-02T02:20:03.615Z,67.49
2023-01-02T02:23:04.049Z,66.88
2023-01-02T02:25:43.352Z,67.04
2023-01-02T02:28:40.480Z,67.02
2023-01-02T02:31:16.128Z,66.50
2023-01-02T02:33:58.501Z,67.03
2023-01-02T02:36:40.905Z,66.61
2023-01-02T02:39:22.472Z,68.39
2023-01-02T02:42:10.836Z,69.84
2023-01-02T02:44:55.213Z,69.08
2023-01-02T02:47:30.632Z,68.41
2023-01-02T02:50:12.116Z,66.72
2023-01-02T02:52:48.636Z,68.14
2023-01-02T02:55:24.261Z,68.68
2023-01-02T02:57:52.664Z,69.95
2023-01-02T03:00:22.269Z,70.55
2023-01-02T03:02:49.090Z,70.11
2023-01-02T03:05:25.581Z,68.93
2023-01-02T03:07:57.438Z,68.20
2023-01-02T03:10:39.192Z,67.56
2023-01-02T03:13:14.349Z,68.11
2023-01-02T03:15:46.956Z,67.57
2023-01-02T03:18:27.603Z,67.56
2023-01-02T03:20:59.508Z,66.83
2023-01-02T03:23:29.016Z,67.07
2023-01-02T03:25:57.888Z,66.97
2023-01-02T03:28:26.722Z,66.79
2023-01-02T03:31:00.707Z,67.11
2023-01-02T03:33:35.817Z,67.24
2023-01-02T03:36:10.588Z,67.56
2023-01-02T03:38:43.035Z,67.44
2023-01-02T03:41:15.559Z,68.00
2023-01-02T03:43:45.479Z,67.75
2023-01-02T03:46:18.140Z,67.36
2023-01-02T03:49:07.334Z,67.00
2023-01-02T03:51:35.042Z,66.78
2023-01-02T03:54:02.832Z,66.96
2023-01-02T03:56:57.549Z,67.05
2023-01-02T03:59:46.636Z,66.81
2023-01-02T04:02:31.468Z,66.97
2023-01-02T04:05:19.787Z,67.08
2023-01-02T04:07:58.703Z,66.93
2023-01-02T04:10:27.867Z,67.04
2023-01-02T04:13:00.728Z,67.72
2023-01-02T04:15:30.090Z,67.28
2023-01-02T04:18:02.198Z,67.53
2023-01-02T04:20:40.818Z,67.51
2023-01-02T04:23:13.826Z,67.62
2023-01-02T04:25:55.097Z,67.69
2023-01-02T04:28:26.566Z,67.72
2023-01-02T04:31:00.114Z,67.23
2023-01-02T04:33:31.063Z,67.69
2023-01-02T04:35:57.410Z,67.45
2023-01-02T04:38:23.753Z,67.63
2023-01-02T04:40:50.096Z,67.19
2023-01-02T04:43:20.714Z,66.86
2023-01-02T04:45:48.601Z,67.03
2023-01-02T04:48:15.937Z,66.99
2023-01-02T04:50:42.967Z,67.19
2023-01-02T04:53:10.777Z,67.13
2023-01-02T04:55:38.564Z,67.28
2023-01-02T04:58:05.691Z,66.68
2023-01-02T05:00:32.168Z,66.84
2023-01-02T05:02:58.559Z,66.61
2023-01-02T05:05:24.884Z,66.76
2023-01-02T05:07:51.224Z,66.78
2023-01-02T05:10:17.691Z,67.04
2023-01-02T05:12:44.029Z,67.09
2023-01-02T05:15:10.926Z,66.91
2023-01-02T05:17:39.036Z,66.76
2023-01-02T05:20:07.505Z,66.75
2023-01-02T05:22:52.298Z,66.64
2023-01-02T05:25:18.636Z,66.83
2023-01-02T05:27:45.673Z,67.14
2023-01-02T05:30:12.167Z,67.24
2023-01-02T05:32:38.529Z,67.21
2023-01-02T05:35:05.211Z,67.42
2023-01-02T05:37:31.563Z,67.18
2023-01-02T05:39:57.905Z,67.12
2023-01-02T05:42:24.273Z,66.81
2023-01-02T05:44:51.214Z,66.81
2023-01-02T05:47:17.705Z,66.39
2023-01-02T05:49:44.362Z,66.73
2023-01-02T05:52:10.676Z,67.44
2023-01-02T05:54:37.015Z,66.85
2023-01-02T05:57:03.425Z,66.91
2023-01-02T05:59:29.953Z,66.67
2023-01-02T06:01:56.361Z,66.95
2023-01-02T06:04:22.737Z,67.00
2023-01-02T06:06:49.505Z,67.36
2023-01-02T06:09:16.998Z,66.80
2023-01-02T06:11:43.414Z,67.10
2023-01-02T06:14:10.787Z,67.02
2023-01-02T06:16:38.388Z,66.85
2023-01-02T06:19:05.816Z,67.56
2023-01-02T06:21:33.097Z,67.99
2023-01-02T06:23:59.825Z,67.75
2023-01-02T06:26:34.237Z,67.65
2023-01-02T06:29:01.239Z,67.51
2023-01-02T06:31:29.436Z,67.38
2023-01-02T06:33:57.705Z,67.26
2023-01-02T06:36:24.607Z,66.82
2023-01-02T06:38:50.943Z,66.73
2023-01-02T06:41:17.843Z,66.89
2023-01-02T06:43:46.737Z,66.71
2023-01-02T06:46:14.535Z,66.65
2023-01-02T06:48:41.806Z,66.94
2023-01-02T06:51:11.038Z,66.70
2023-01-02T06:53:39.334Z,67.08
2023-01-02T06:56:07.059Z,67.16
2023-01-02T06:58:35.465Z,67.26
2023-01-02T07:01:04.247Z,66.96
2023-01-02T07:03:31.067Z,67.36
2023-01-02T07:06:08.000Z,67.38
2023-01-02T07:08:34.373Z,68.05
2023-01-02T07:11:26.843Z,68.38
2023-01-02T07:13:54.619Z,68.62
2023-01-02T07:16:22.977Z,68.30
2023-01-02T07:18:50.947Z,68.31
2023-01-02T07:21:20.649Z,68.06
2023-01-02T07:23:47.048Z,68.11
2023-01-02T07:26:13.781Z,68.07
2023-01-02T07:28:40.352Z,67.89
2023-01-02T07:31:11.087Z,68.26
2023-01-02T07:33:37.625Z,68.33
2023-01-02T07:36:07.521Z,68.36
2023-01-02T07:38:34.795Z,69.07
2023-01-02T07:41:01.471Z,69.42
2023-01-02T07:43:27.980Z,69.64
2023-01-02T07:45:54.467Z,71.33
2023-01-02T07:48:21.021Z,70.91
2023-01-02T07:50:47.363Z,70.78
2023-01-02T07:53:13.788Z,72.95
2023-01-02T07:55:40.305Z,75.78
2023-01-02T07:58:06.639Z,76.64
2023-01-02T08:00:33.006Z,75.87
2023-01-02T08:03:00.515Z,75.03
2023-01-02T08:05:26.821Z,75.47
2023-01-02T08:07:53.131Z,75.34
2023-01-02T08:10:19.433Z,74.86
2023-01-02T08:12:45.929Z,74.29
2023-01-02T08:15:12.294Z,73.27
2023-01-02T08:17:39.436Z,72.36
2023-01-02T08:20:08.281Z,71.61
2023-01-02T08:22:35.151Z,70.95
2023-01-02T08:25:01.936Z,70.36
2023-01-02T08:27:28.506Z,69.89
2023-01-02T08:29:54.871Z,69.69
2023-01-02T08:32:21.249Z,69.71
2023-01-02T08:34:47.583Z,68.85
2023-01-02T08:37:14.003Z,68.83
2023-01-02T08:39:40.332Z,68.68
2023-01-02T08:42:07.272Z,68.66
2023-01-02T08:44:34.680Z,68.68
2023-01-02T08:47:01.014Z,67.97
2023-01-02T08:49:27.332Z,68.03
2023-01-02T08:51:53.721Z,67.93
2023-01-02T08:54:20.143Z,67.91
2023-01-02T08:56:46.519Z,67.55
2023-01-02T08:59:12.904Z,67.71
2023-01-02T09:01:40.340Z,67.01
2023-01-02T09:04:12.325Z,67.16
2023-01-02T09:06:39.292Z,66.82
2023-01-02T09:09:11.517Z,66.51
2023-01-02T09:11:43.027Z,66.56
2023-01-02T09:14:09.405Z,66.29
2023-01-02T09:16:35.748Z,67.14
2023-01-02T09:19:02.662Z,71.05
2023-01-02T09:21:29.574Z,71.43
2023-01-02T09:23:56.599Z,70.40
2023-01-02T09:26:23.195Z,70.15
2023-01-02T09:28:49.771Z,69.57
2023-01-02T09:31:17.302Z,69.38
2023-01-02T09:33:45.308Z,68.97
2023-01-02T09:36:14.257Z,69.00
2023-01-02T09:38:41.118Z,68.31
2023-01-02T09:41:24.990Z,68.47
2023-01-02T09:43:57.996Z,67.65
2023-01-02T09:46:51.915Z,67.55
2023-01-02T09:49:21.210Z,67.14
2023-01-02T09:51:48.152Z,67.35
2023-01-02T09:54:27.313Z,68.43
2023-01-02T09:57:35.644Z,67.43
2023-01-02T10:00:20.543Z,66.49
2023-01-02T10:03:13.273Z,65.78
2023-01-02T10:06:06.099Z,65.06
2023-01-02T10:08:53.861Z,64.23
2023-01-02T10:11:38.813Z,63.42
2023-01-02T10:14:21.174Z,63.69
2023-01-02T10:16:52.948Z,63.42
2023-01-02T10:19:32.887Z,64.32
2023-01-02T10:22:01.924Z,65.10
2023-01-02T10:24:40.591Z,64.22
2023-01-02T10:27:13.055Z,63.30
2023-01-02T10:29:50.546Z,62.81
2023-01-02T10:32:19.458Z,62.49
2023-01-02T10:35:07.943Z,61.11
2023-01-02T10:37:35.318Z,60.69
2023-01-02T10:40:01.980Z,60.03
2023-01-02T10:42:31.328Z,59.24
2023-01-02T10:44:57.703Z,59.14
2023-01-02T10:47:39.535Z,58.67
2023-01-02T10:50:20.787Z,58.46
2023-01-02T10:52:51.084Z,58.38
2023-01-02T10:55:32.665Z,57.66
2023-01-02T10:58:04.994Z,56.82
2023-01-02T11:00:34.400Z,56.43
2023-01-02T11:03:16.513Z,56.17
2023-01-02T11:05:54.871Z,56.16
2023-01-02T11:08:23.976Z,55.84
2023-01-02T11:10:51.483Z,56.50
2023-01-02T11:13:20.598Z,57.13
2023-01-02T11:15:50.399Z,57.21
2023-01-02T11:18:22.077Z,56.46
2023-01-02T11:20:53.323Z,58.03
2023-01-02T11:23:24.873Z,57.37
2023-01-02T11:25:52.732Z,56.83
2023-01-02T11:28:26.201Z,52.83
2023-01-02T11:31:03.375Z,54.13
2023-01-02T11:33:32.770Z,53.75
2023-01-02T11:36:14.045Z,56.70
2023-01-02T11:38:50.589Z,54.07
2023-01-02T11:41:48.932Z,54.91
2023-01-02T11:44:21.866Z,55.70
2023-01-02T11:46:48.365Z,57.01
2023-01-02T11:49:20.872Z,58.02
2023-01-02T11:51:57.254Z,58.16
2023-01-02T11:54:30.993Z,55.74
2023-01-02T11:56:59.418Z,52.01
2023-01-02T11:59:37.262Z,50.95
2023-01-02T12:02:17.817Z,51.34
2023-01-02T12:04:44.264Z,51.58
2023-01-02T12:07:38.568Z,52.09
2023-01-02T12:10:39.619Z,52.00
2023-01-02T12:13:24.780Z,51.76
2023-01-02T12:16:26.547Z,51.72
2023-01-02T12:19:27.285Z,50.80
2023-01-02T12:22:02.685Z,50.26
2023-01-02T12:24:56.702Z,50.13
2023-01-02T12:27:53.239Z,49.94
2023-01-02T12:30:21.520Z,49.69
2023-01-02T12:33:14.391Z,47.98
2023-01-02T12:36:16.083Z,47.70
2023-01-02T12:38:51.428Z,47.50
2023-01-02T12:41:27.518Z,48.12
2023-01-02T12:44:18.129Z,47.72
2023-01-02T12:47:31.039Z,46.99
2023-01-02T12:50:20.660Z,47.10
2023-01-02T12:53:08.799Z,46.42
2023-01-02T12:56:11.076Z,45.79
2023-01-02T12:59:05.459Z,46.08
2023-01-02T13:01:56.439Z,45.81
2023-01-02T13:04:31.687Z,43.99
2023-01-02T13:07:05.076Z,43.45
2023-01-02T13:09:44.352Z,43.76
2023-01-02T13:12:21.801Z,43.99
2023-01-02T13:14:55.748Z,43.71
2023-01-02T13:17:40.940Z,43.68
2023-01-02T13:20:13.410Z,44.30
2023-01-02T13:22:55.410Z,44.42
2023-01-02T13:25:23.435Z,44.67
2023-01-02T13:27:58.535Z,44.63
2023-01-02T13:30:34.069Z,45.15
2023-01-02T13:33:06.335Z,45.32
2023-01-02T13:35:36.994Z,45.66
2023-01-02T13:38:07.233Z,44.58
2023-01-02T13:40:34.782Z,44.47
2023-01-02T13:43:06.130Z,44.92
2023-01-02T13:45:42.540Z,45.93
2023-01-02T13:48:34.972Z,45.13
2023-01-02T13:51:13.645Z,45.09
2023-01-02T13:53:46.126Z,45.56
2023-01-02T13:56:18.841Z,44.92
2023-01-02T13:58:48.277Z,44.63
2023-01-02T14:01:20.539Z,44.38
2023-01-02T14:04:19.805Z,44.17
2023-01-02T14:06:53.558Z,44.32
2023-01-02T14:09:22.911Z,45.09
2023-01-02T14:11:58.708Z,44.90
2023-01-02T14:14:47.613Z,44.66
2023-01-02T14:17:19.117Z,44.87
2023-01-02T14:19:45.808Z,44.98
2023-01-02T14:22:17.709Z,45.13
2023-01-02T14:24:51.802Z,45.88
2023-01-02T14:27:25.989Z,46.19
2023-01-02T14:29:56.758Z,46.33
2023-01-02T14:32:39.556Z,46.26
2023-01-02T14:35:22.770Z,46.11
2023-01-02T14:37:51.020Z,46.57
2023-01-02T14:40:23.504Z,46.92
2023-01-02T14:43:22.337Z,46.60
2023-01-02T14:45:52.410Z,46.03
2023-01-02T14:48:31.141Z,46.86
2023-01-02T14:51:08.973Z,46.93
2023-01-02T14:53:51.930Z,47.40
2023-01-02T14:56:22.875Z,47.41
2023-01-02T14:58:50.751Z,46.91
2023-01-02T15:01:42.415Z,46.00
2023-01-02T15:04:39.205Z,46.04
2023-01-02T15:07:17.097Z,46.34
2023-01-02T15:09:49.188Z,47.11
2023-01-02T15:12:48.099Z,47.30
2023-01-02T15:15:18.471Z,47.66
2023-01-02T15:17:47.622Z,47.75
2023-01-02T15:20:23.649Z,47.64
2023-01-02T15:22:54.330Z,48.08
2023-01-02T15:25:40.679Z,48.58
2023-01-02T15:28:31.706Z,48.08
2023-01-02T15:31:03.673Z,47.57
2023-01-02T15:33:32.136Z,47.00
2023-01-02T15:36:04.957Z,46.54
2023-01-02T15:38:31.962Z,46.28
2023-01-02T15:40:58.694Z,46.23
2023-01-02T15:43:50.191Z,46.12
2023-01-02T15:46:16.774Z,47.62
2023-01-02T15:48:44.307Z,47.80
2023-01-02T15:51:16.252Z,48.06
2023-01-02T15:53:43.762Z,49.53
2023-01-02T15:56:30.745Z,48.94
2023-01-02T15:58:57.125Z,50.93
2023-01-02T16:01:24.441Z,50.77
2023-01-02T16:04:01.966Z,50.58
2023-01-02T16:06:41.105Z,51.14
2023-01-02T16:09:18.304Z,52.45
2023-01-02T16:11:49.112Z,52.55
2023-01-02T16:14:27.016Z,52.19
2023-01-02T16:17:22.495Z,51.86
2023-01-02T16:19:58.858Z,51.36
2023-01-02T16:22:43.863Z,51.67
2023-01-02T16:25:38.235Z,52.00
2023-01-02T16:28:34.835Z,51.82
2023-01-02T16:31:10.065Z,52.85
2023-01-02T16:33:37.630Z,52.81
2023-01-02T16:36:03.903Z,52.58
2023-01-02T16:38:32.224Z,52.95
2023-01-02T16:41:03.391Z,54.03
2023-01-02T16:43:35.386Z,54.05
2023-01-02T16:46:10.647Z,55.01
2023-01-02T16:48:39.316Z,54.84
2023-01-02T16:51:06.005Z,56.10
2023-01-02T16:53:33.647Z,56.07
2023-01-02T16:56:00.507Z,55.66
2023-01-02T16:58:26.864Z,55.89
2023-01-02T17:00:55.701Z,56.38
2023-01-02T17:03:25.502Z,56.30
2023-01-02T17:06:02.099Z,57.53
2023-01-02T17:08:31.293Z,58.26
2023-01-02T17:10:58.739Z,59.31
2023-01-02T17:13:25.749Z,59.45
2023-01-02T17:15:52.090Z,61.02
2023-01-02T17:18:18.459Z,59.95
2023-01-02T17:20:44.980Z,59.78
2023-01-02T17:23:11.474Z,60.13
2023-01-02T17:25:40.780Z,58.68
2023-01-02T17:28:07.415Z,58.91
2023-01-02T17:30:33.767Z,59.39
2023-01-02T17:33:03.996Z,59.89
2023-01-02T17:35:30.900Z,60.43
2023-01-02T17:37:57.223Z,61.16
2023-01-02T17:40:23.592Z,60.10
2023-01-02T17:42:49.947Z,59.64
2023-01-02T17:45:16.374Z,59.29
2023-01-02T17:48:02.596Z,58.99
2023-01-02T17:50:29.501Z,59.23
2023-01-02T17:52:55.853Z,61.17
2023-01-02T17:55:22.219Z,60.18
2023-01-02T17:57:48.916Z,59.70
2023-01-02T18:00:15.638Z,59.38
2023-01-02T18:02:42.070Z,59.04
2023-01-02T18:05:09.146Z,59.07
2023-01-02T18:07:35.570Z,59.08
2023-01-02T18:10:07.888Z,58.75
2023-01-02T18:12:37.692Z,59.31
2023-01-02T18:15:11.568Z,59.73
2023-01-02T18:17:37.916Z,59.94
2023-01-02T18:20:10.343Z,60.13
2023-01-02T18:22:36.701Z,60.32
2023-01-02T18:25:18.549Z,60.44
2023-01-02T18:27:45.468Z,60.36
2023-01-02T18:30:13.679Z,60.85
2023-01-02T18:32:41.757Z,61.34
2023-01-02T18:35:55.983Z,61.44
2023-01-02T18:38:19.136Z,62.05
2023-01-02T18:40:45.524Z,62.15
2023-01-02T18:43:32.348Z,62.51
2023-01-02T18:46:00.308Z,62.50
2023-01-02T18:48:26.856Z,62.72
2023-01-02T18:50:58.454Z,62.94
2023-01-02T18:53:29.524Z,63.50
2023-01-02T18:56:00.911Z,63.65
2023-01-02T18:58:43.349Z,64.61
2023-01-02T19:01:26.906Z,66.53
2023-01-02T19:04:00.727Z,67.07
2023-01-02T19:06:28.021Z,67.72
2023-01-02T19:09:05.805Z,67.22
2023-01-02T19:11:52.292Z,66.60
2023-01-02T19:14:23.158Z,69.21
2023-01-02T19:17:15.688Z,69.00
2023-01-02T19:19:42.009Z,69.70
2023-01-02T19:22:21.833Z,69.77
2023-01-02T19:24:48.465Z,69.69
2023-01-02T19:27:19.452Z,71.00
2023-01-02T19:29:50.707Z,71.07
2023-01-02T19:32:27.476Z,71.06
2023-01-02T19:34:57.900Z,71.40
2023-01-02T19:37:35.728Z,71.31
2023-01-02T19:40:07.173Z,71.07
2023-01-02T19:42:35.432Z,72.03
2023-01-02T19:45:06.500Z,74.01
2023-01-02T19:47:35.011Z,74.50
2023-01-02T19:50:02.269Z,74.00
2023-01-02T19:52:29.875Z,75.06
2023-01-02T19:54:56.995Z,76.27
2023-01-02T19:57:24.152Z,77.77
2023-01-02T19:59:52.432Z,77.04
2023-01-02T20:02:21.578Z,76.29
2023-01-02T20:04:50.014Z,75.86
2023-01-02T20:07:16.669Z,75.59
2023-01-02T20:09:43.065Z,76.22
2023-01-02T20:12:28.087Z,77.48
2023-01-02T20:14:54.437Z,77.71
2023-01-02T20:17:20.816Z,77.78
2023-01-02T20:19:47.198Z,77.62
2023-01-02T20:22:13.560Z,76.81
2023-01-02T20:24:39.916Z,75.97
2023-01-02T20:27:06.678Z,75.59
2023-01-02T20:29:33.076Z,75.68
2023-01-02T20:31:59.924Z,74.33
2023-01-02T20:34:26.537Z,75.64
2023-01-02T20:36:53.713Z,75.92
2023-01-02T20:39:20.125Z,77.18
2023-01-02T20:41:46.451Z,78.19
2023-01-02T20:44:13.879Z,77.20
2023-01-02T20:46:40.681Z,76.15
2023-01-02T20:49:07.912Z,75.01
2023-01-02T20:51:35.360Z,75.92
2023-01-02T20:54:02.244Z,75.42
2023-01-02T20:56:28.589Z,74.79
2023-01-02T20:58:55.540Z,74.07
2023-01-02T21:01:22.867Z,74.70
2023-01-02T21:03:49.697Z,74.90
2023-01-02T21:06:17.200Z,75.59
2023-01-02T21:08:43.560Z,75.80
2023-01-02T21:11:10.574Z,75.73
2023-01-02T21:13:37.029Z,77.49
2023-01-02T21:16:03.552Z,78.96
2023-01-02T21:18:32.727Z,79.15
2023-01-02T21:21:11.083Z,79.77
2023-01-02T21:23:39.782Z,79.58
2023-01-02T21:26:08.188Z,79.03
2023-01-02T21:28:35.706Z,77.32
2023-01-02T21:31:02.209Z,78.71
2023-01-02T21:33:29.391Z,79.71
2023-01-02T21:35:57.977Z,80.18
2023-01-02T21:38:26.349Z,79.79
2023-01-02T21:40:53.321Z,79.48
2023-01-02T21:43:21.714Z,78.22
2023-01-02T21:45:48.727Z,78.08
2023-01-02T21:48:15.142Z,78.18
2023-01-02T21:50:41.538Z,78.46
2023-01-02T21:53:08.019Z,78.17
2023-01-02T21:55:34.365Z,77.66
2023-01-02T21:58:16.081Z,76.12
2023-01-02T22:00:43.525Z,76.24
2023-01-02T22:03:10.371Z,76.67
2023-01-02T22:05:36.853Z,76.38
2023-01-02T22:08:03.281Z,76.56
2023-01-02T22:10:29.693Z,76.40
2023-01-02T22:12:56.048Z,75.90
2023-01-02T22:15:22.778Z,76.05
2023-01-02T22:17:49.157Z,76.19
2023-01-02T22:20:15.592Z,76.38
2023-01-02T22:22:41.977Z,76.15
2023-01-02T22:25:09.096Z,76.79
2023-01-02T22:27:35.759Z,76.47
2023-01-02T22:30:21.583Z,76.16
2023-01-02T22:32:49.645Z,75.98
2023-01-02T22:35:16.121Z,76.08
2023-01-02T22:37:42.523Z,75.55
2023-01-02T22:40:09.493Z,75.96
2023-01-02T22:43:01.008Z,75.40
2023-01-02T22:45:32.164Z,74.75
2023-01-02T22:48:03.448Z,75.04
2023-01-02T22:50:39.047Z,74.88
2023-01-02T22:53:15.271Z,74.45
2023-01-02T22:55:41.681Z,76.36
2023-01-02T22:58:08.644Z,77.88
2023-01-02T23:00:35.072Z,77.61
2023-01-02T23:03:01.447Z,78.82
2023-01-02T23:05:27.800Z,78.98
2023-01-02T23:07:54.194Z,78.25
2023-01-02T23:10:20.527Z,78.33
2023-01-02T23:12:46.935Z,78.19
2023-01-02T23:15:13.929Z,77.34
2023-01-02T23:17:58.944Z,77.72
2023-01-02T23:20:25.994Z,77.87
2023-01-02T23:22:52.373Z,76.58
2023-01-02T23:25:18.694Z,76.27
2023-01-02T23:27:45.044Z,75.87
2023-01-02T23:30:12.268Z,75.50
2023-01-02T23:32:38.633Z,76.15
2023-01-02T23:35:05.933Z,76.90
2023-01-02T23:37:32.272Z,76.29
2023-01-02T23:39:58.721Z,75.44
2023-01-02T23:42:25.107Z,75.57
2023-01-02T23:44:51.445Z,74.75
2023-01-02T23:47:19.457Z,75.22
2023-01-02T23:49:46.249Z,74.98
2023-01-02T23:52:12.888Z,75.79
2023-01-02T23:54:39.227Z,75.42
2023-01-02T23:57:05.631Z,76.55
2023-01-02T23:59:32.032Z,77.49
